Time;durP1;ratioP1;P1;durP2;ratioP2;P2;SDS_P1;SDS_P2;PMS_P1;PMS_P2;Temp;Humidity;BMP_temperature;BMP_pressure;BME280_temperature;BME280_humidity;BME280_pressure;Samples;Min_cycle;Max_cycle;Signal;HPM_P1;HPM_P2
2021/12/29 00:01:14;;;;;;;;;;;;;;;-6.90;95.57;100617.41;5015399;28;20045;-73
2021/12/29 00:03:41;;;;;;;2.17;2.00;;;;;;;-6.88;95.41;100628.41;5014915;28;19925;-73
2021/12/29 00:06:08;;;;;;;3.63;2.65;;;;;;;-6.89;95.33;100614.88;5014754;28;20053;-74
2021/12/29 00:08:34;;;;;;;2.72;1.85;;;;;;;-6.87;95.33;100625.03;5014949;28;20385;-74
2021/12/29 00:11:01;;;;;;;2.97;1.98;;;;;;;-6.87;95.22;100628.41;5014806;28;20045;-74
2021/12/29 00:13:30;;;;;;;3.03;2.30;;;;;;;-6.88;95.36;100621.66;5014472;28;20054;-74
2021/12/29 00:15:58;;;;;;;2.38;1.98;;;;;;;-6.87;95.51;100619.97;5014750;28;20070;-74
2021/12/29 00:18:26;;;;;;;2.90;1.95;;;;;;;-6.85;95.12;100613.28;5014514;28;20076;-73
2021/12/29 00:20:54;;;;;;;3.47;2.40;;;;;;;-6.82;95.25;100615.84;5014624;28;20096;-74
2021/12/29 00:23:21;;;;;;;4.20;2.47;;;;;;;-6.84;95.19;100623.41;5014462;28;20065;-73
2021/12/29 00:25:48;;;;;;;3.17;2.38;;;;;;;-6.81;95.00;100620.06;5014318;28;20049;-74
2021/12/29 00:28:15;;;;;;;4.80;2.80;;;;;;;-6.88;95.39;100618.28;5014917;28;20061;-75
2021/12/29 00:30:43;;;;;;;;;;;;;;;-6.84;95.11;100623.41;5014866;28;20061;-75
2021/12/29 00:33:12;;;;;;;5.28;3.10;;;;;;;-6.86;95.02;100616.63;5014477;28;19921;-74
2021/12/29 00:35:41;;;;;;;3.38;2.28;;;;;;;-6.85;95.18;100620.88;5014182;28;20053;-74
2021/12/29 00:38:10;;;;;;;4.65;3.25;;;;;;;-6.90;95.26;100628.38;5013993;28;20136;-75
2021/12/29 00:40:38;;;;;;;3.65;2.75;;;;;;;-6.87;95.33;100620.81;5013928;28;20046;-74
2021/12/29 00:43:06;;;;;;;4.18;2.72;;;;;;;-6.83;94.98;100635.22;5013867;28;20049;-74
2021/12/29 00:45:35;;;;;;;4.80;3.17;;;;;;;-6.80;95.33;100627.69;5013829;28;20488;-75
2021/12/29 00:48:04;;;;;;;3.20;2.03;;;;;;;-6.83;95.22;100626.81;5013791;28;20046;-75
2021/12/29 00:50:33;;;;;;;4.68;2.75;;;;;;;-6.80;94.86;100625.16;5013880;28;20104;-75
2021/12/29 00:53:00;;;;;;;4.95;2.47;;;;;;;-6.84;94.63;100622.56;5013752;28;20436;-75
2021/12/29 00:55:27;;;;;;;;;;;;;;;-6.91;94.86;100611.50;5014187;28;20484;-74
2021/12/29 00:57:54;;;;;;;3.38;2.38;;;;;;;-6.92;94.60;100619.06;5013300;28;19944;-75
2021/12/29 01:00:23;;;;;;;4.43;2.55;;;;;;;-7.03;95.15;100619.78;5013888;28;20042;-75
2021/12/29 01:02:51;;;;;;;6.25;3.40;;;;;;;-6.96;95.24;100620.72;5013805;28;20053;-75
2021/12/29 01:05:20;;;;;;;2.30;1.95;;;;;;;-6.93;94.61;100620.75;5013679;28;20060;-75
2021/12/29 01:07:49;;;;;;;4.85;2.13;;;;;;;-6.94;94.36;100628.31;5014158;28;20050;-75
2021/12/29 01:10:17;;;;;;;3.25;2.53;;;;;;;-6.93;94.46;100619.91;5013990;28;20045;-74
2021/12/29 01:12:51;;;;;;;2.10;1.55;;;;;;;-6.99;94.72;100620.66;5013436;28;20489;-74
2021/12/29 01:15:25;;;;;;;4.00;2.80;;;;;;;-7.05;95.16;100628.16;5013789;28;20050;-75
2021/12/29 01:17:53;;;;;;;1.75;1.25;;;;;;;-7.03;94.93;100624.81;5013327;28;20061;-75
2021/12/29 01:20:22;;;;;;;3.35;2.42;;;;;;;-7.01;94.96;100620.66;5013627;28;20045;-75
2021/12/29 01:22:50;;;;;;;2.80;1.67;;;;;;;-6.97;94.84;100619.00;5013670;28;20042;-75
2021/12/29 01:25:17;;;;;;;4.25;1.88;;;;;;;-6.98;94.57;100608.88;5013428;28;20080;-74
2021/12/29 01:27:44;;;;;;;;;;;;;;;-7.01;94.64;100608.00;5014036;28;20469;-74
2021/12/29 01:30:11;;;;;;;2.90;1.98;;;;;;;-7.06;94.71;100602.03;5013355;28;19944;-74
2021/12/29 01:32:38;;;;;;;;;;;;;;;-7.11;95.21;100596.06;5025385;23;20148;-69
2021/12/29 01:35:06;;;;;;;;;;;;;;;-7.05;95.05;100596.13;5013504;28;19921;-70
2021/12/29 01:37:34;;;;;;;4.20;2.63;;;;;;;-7.11;95.07;100597.75;5013033;28;20352;-70
2021/12/29 01:40:02;;;;;;;7.18;2.28;;;;;;;-7.05;94.85;100597.81;5013135;28;20049;-69
2021/12/29 01:42:29;;;;;;;3.05;1.77;;;;;;;-7.08;94.98;100597.78;5013178;28;20050;-70
2021/12/29 01:44:56;;;;;;;5.45;3.28;;;;;;;-7.18;95.34;100593.41;5012929;28;20480;-70
2021/12/29 01:47:27;;;;;;;4.05;2.10;;;;;;;-7.11;94.91;100596.06;5013233;28;20049;-65
2021/12/29 01:49:54;;;;;;;7.70;2.90;;;;;;;-7.11;94.92;100591.00;5013127;28;20072;-69
2021/12/29 01:52:24;;;;;;;3.10;2.13;;;;;;;-7.15;95.27;100590.91;5012965;28;20424;-70
2021/12/29 01:54:53;;;;;;;3.50;2.40;;;;;;;-7.08;95.18;100587.66;5013286;28;20077;-70
2021/12/29 01:57:20;;;;;;;2.05;1.70;;;;;;;-7.07;94.75;100589.34;5012855;28;20396;-69
2021/12/29 01:59:48;;;;;;;4.22;2.92;;;;;;;-7.16;95.25;100595.13;5012967;28;20041;-69
2021/12/29 02:02:16;;;;;;;4.55;3.08;;;;;;;-7.08;94.87;100588.50;5012846;28;20057;-70
2021/12/29 02:04:44;;;;;;;5.00;2.78;;;;;;;-7.05;94.98;100590.22;5012752;28;20050;-69
2021/12/29 02:07:12;;;;;;;2.53;1.77;;;;;;;-7.04;94.67;100582.69;5012631;28;20061;-70
2021/12/29 02:09:38;;;;;;;3.88;2.60;;;;;;;-7.01;95.06;100584.41;5012579;28;20056;-69
2021/12/29 02:12:08;;;;;;;5.63;2.88;;;;;;;-7.03;94.67;100583.50;5012547;28;20045;-70
2021/12/29 02:14:35;;;;;;;4.22;2.35;;;;;;;-7.03;94.80;100576.78;5012446;28;20050;-69
2021/12/29 02:17:03;;;;;;;5.93;2.92;;;;;;;-7.04;94.76;100566.63;5012606;28;20050;-71
2021/12/29 02:19:29;;;;;;;2.60;1.90;;;;;;;-7.06;94.50;100561.56;5012747;28;20046;-70
2021/12/29 02:22:05;;;;;;;6.30;2.55;;;;;;;-7.12;95.00;100560.63;5012571;28;20056;-70
2021/12/29 02:24:41;;;;;;;3.35;2.55;;;;;;;-7.08;95.06;100567.44;5012177;28;20046;-69
2021/12/29 02:27:13;;;;;;;6.05;3.20;;;;;;;-7.17;95.42;100563.06;5012762;28;20049;-69
2021/12/29 02:29:42;;;;;;;4.28;2.58;;;;;;;-7.11;95.17;100563.19;5012382;28;20045;-69
2021/12/29 02:32:09;;;;;;;5.03;3.22;;;;;;;-7.12;94.94;100564.00;5012440;28;20050;-71
2021/12/29 02:34:36;;;;;;;3.60;3.05;;;;;;;-7.05;94.98;100563.25;5012607;28;20056;-69
2021/12/29 02:37:04;;;;;;;5.45;3.17;;;;;;;-7.08;95.00;100563.22;5012155;28;20050;-71
2021/12/29 02:39:33;;;;;;;4.40;2.72;;;;;;;-7.01;94.93;100557.41;5012515;28;20046;-68
2021/12/29 02:42:04;;;;;;;5.18;3.03;;;;;;;-6.97;94.93;100553.22;5012432;28;20054;-70
2021/12/29 02:44:39;;;;;;;4.60;2.22;;;;;;;-6.96;95.12;100557.47;5012173;28;20407;-69
2021/12/29 02:47:06;;;;;;;5.10;3.10;;;;;;;-6.95;94.87;100554.09;5012152;28;20137;-69
2021/12/29 02:49:33;;;;;;;7.97;2.40;;;;;;;-6.94;94.70;100548.22;5012247;28;20053;-70
2021/12/29 02:52:00;;;;;;;3.95;2.60;;;;;;;-6.98;94.95;100551.53;5012312;28;20049;-69
2021/12/29 02:54:28;;;;;;;4.70;3.38;;;;;;;-7.07;95.12;100553.94;5012338;28;20053;-67
2021/12/29 02:56:55;;;;;;;5.82;3.35;;;;;;;-7.01;95.12;100549.00;5012490;28;20046;-68
2021/12/29 02:59:23;;;;;;;4.97;3.10;;;;;;;-7.04;95.15;100538.81;5012192;28;20050;-69
2021/12/29 03:01:51;;;;;;;4.22;3.00;;;;;;;-6.98;95.16;100548.19;5012158;28;20046;-70
2021/12/29 03:04:18;;;;;;;3.60;2.80;;;;;;;-6.94;95.44;100545.69;5011850;28;20081;-70
2021/12/29 03:06:45;;;;;;;;;;;;;;;-6.90;94.73;100544.06;5012393;28;20056;-70
2021/12/29 03:09:13;;;;;;;4.03;2.58;;;;;;;-6.99;95.21;100539.72;5012296;28;19921;-69
2021/12/29 03:11:42;;;;;;;6.05;2.63;;;;;;;-6.97;95.29;100540.59;5012075;28;20046;-70
2021/12/29 03:14:10;;;;;;;5.25;2.45;;;;;;;-6.96;94.84;100537.25;5011936;28;20061;-70
2021/12/29 03:16:37;;;;;;;2.80;1.90;;;;;;;-6.93;94.96;100531.38;5011908;28;20050;-70
2021/12/29 03:19:05;;;;;;;4.15;2.83;;;;;;;-6.97;95.14;100527.94;5011985;28;20045;-70
2021/12/29 03:21:33;;;;;;;4.97;3.17;;;;;;;-7.04;95.39;100533.75;5015585;28;20057;-70
2021/12/29 03:24:00;;;;;;;3.30;2.47;;;;;;;-7.00;95.46;100522.84;5015887;28;20068;-68
2021/12/29 03:26:27;;;;;;;2.80;2.25;;;;;;;-7.02;95.27;100520.28;5016245;28;20046;-70
2021/12/29 03:28:57;;;;;;;5.05;3.05;;;;;;;-7.04;95.32;100521.97;5015620;28;20046;-69
2021/12/29 03:31:25;;;;;;;7.63;3.95;;;;;;;-7.02;95.38;100522.81;5015556;28;20484;-70
2021/12/29 03:33:52;;;;;;;5.00;2.92;;;;;;;-6.94;95.28;100515.31;5026725;23;20065;-73
2021/12/29 03:36:20;;;;;;;5.97;3.00;;;;;;;-6.96;95.38;100509.44;5015692;28;20050;-74
2021/12/29 03:38:49;;;;;;;4.65;2.85;;;;;;;-6.95;95.28;100503.53;5015244;28;20054;-74
2021/12/29 03:41:18;;;;;;;5.55;3.53;;;;;;;-6.95;95.62;100507.75;5015275;28;20046;-74
2021/12/29 03:43:45;;;;;;;3.05;2.08;;;;;;;-6.89;95.20;100502.75;5015118;28;20045;-74
2021/12/29 03:46:15;;;;;;;3.33;2.50;;;;;;;-6.99;95.66;100496.72;5015454;28;20045;-74
2021/12/29 03:48:44;;;;;;;4.85;2.90;;;;;;;-6.92;95.68;100495.97;5015284;28;20054;-74
2021/12/29 03:51:11;;;;;;;4.35;2.22;;;;;;;-6.85;95.41;100497.75;5015253;28;20046;-74
2021/12/29 03:53:39;;;;;;;6.00;3.13;;;;;;;-6.90;95.41;100488.41;5014980;28;20111;-74
2021/12/29 03:56:07;;;;;;;3.50;1.92;;;;;;;-6.86;95.76;100493.53;5015052;28;20484;-74
2021/12/29 03:58:34;;;;;;;7.32;4.35;;;;;;;-6.88;95.84;100489.28;5014826;28;20338;-74
2021/12/29 04:01:04;;;;;;;1.58;1.48;;;;;;;-6.80;95.38;100482.63;5015450;28;20072;-74
2021/12/29 04:03:32;;;;;;;5.35;3.42;;;;;;;-6.87;95.54;100481.69;5014919;28;20064;-75
2021/12/29 04:05:59;;;;;;;7.53;4.10;;;;;;;-6.91;95.88;100489.22;5015082;28;20481;-74
2021/12/29 04:08:26;;;;;;;1.77;1.48;;;;;;;-6.85;95.65;100474.97;5014707;28;20048;-74
2021/12/29 04:10:53;;;;;;;6.18;3.92;;;;;;;-6.87;95.80;100476.63;5014659;28;20061;-74
2021/12/29 04:13:20;;;;;;;5.68;3.15;;;;;;;-6.77;95.90;100474.22;5014922;28;20048;-74
2021/12/29 04:15:48;;;;;;;5.88;3.55;;;;;;;-6.73;95.66;100473.41;5014589;28;20060;-74
2021/12/29 04:18:26;;;;;;;;;;;;;;;-6.72;95.22;100468.38;5015001;28;20052;-75
2021/12/29 04:20:55;;;;;;;3.92;2.63;;;;;;;-6.75;95.82;100465.81;5014532;28;19926;-74
2021/12/29 04:23:23;;;;;;;2.35;1.90;;;;;;;-6.70;95.51;100463.34;5014352;28;20049;-74
2021/12/29 04:25:53;;;;;;;2.63;2.08;;;;;;;-6.75;95.84;100459.91;5014327;28;20042;-74
2021/12/29 04:28:23;;;;;;;5.32;3.08;;;;;;;-6.74;95.73;100461.59;5014279;28;20088;-74
2021/12/29 04:30:52;;;;;;;5.60;3.00;;;;;;;-6.71;95.57;100456.56;5014089;28;20070;-74
2021/12/29 04:33:19;;;;;;;6.85;5.00;;;;;;;-6.71;95.48;100462.47;4982416;23;1256684;-70
2021/12/29 04:35:48;;;;;;;3.83;2.22;;;;;;;-6.67;95.67;100455.78;5014091;28;20057;-69
2021/12/29 04:38:17;;;;;;;6.82;3.05;;;;;;;-6.67;95.67;100455.78;5014093;28;20060;-70
2021/12/29 04:40:44;;;;;;;4.57;2.90;;;;;;;-6.69;95.88;100459.97;5014252;28;20507;-70
2021/12/29 04:43:11;;;;;;;3.63;2.70;;;;;;;-6.67;95.79;100458.31;5014030;28;20045;-70
2021/12/29 04:45:38;;;;;;;4.32;3.20;;;;;;;-6.67;95.80;100456.63;5014148;28;20069;-70
2021/12/29 04:48:12;;;;;;;1.75;1.52;;;;;;;-6.60;95.79;100449.94;5014036;28;20496;-65
2021/12/29 04:50:40;;;;;;;5.88;3.38;;;;;;;-6.64;95.86;100453.25;5014161;28;20050;-69
2021/12/29 04:53:09;;;;;;;3.85;2.55;;;;;;;-6.58;95.63;100445.72;5013792;28;20054;-69
2021/12/29 04:55:39;;;;;;;3.40;2.50;;;;;;;-6.62;95.75;100442.31;5013835;28;20052;-69
2021/12/29 04:58:06;;;;;;;4.18;2.47;;;;;;;-6.57;95.61;100437.31;5013680;28;20050;-67
2021/12/29 05:00:34;;;;;;;2.88;1.92;;;;;;;-6.59;95.76;100438.97;5014064;28;20042;-69
2021/12/29 05:03:01;;;;;;;4.07;2.63;;;;;;;-6.58;95.81;100440.66;5013940;28;20049;-68
2021/12/29 05:05:41;;;;;;;;;;;;;;;-6.57;95.83;100440.69;5014271;28;20049;-69
2021/12/29 05:08:26;;;;;;;1.48;1.35;;;;;;;-6.58;95.81;100439.00;5013645;28;19921;-70
2021/12/29 05:10:58;;;;;;;5.53;3.65;;;;;;;-6.58;95.75;100440.66;5013526;28;20052;-69
2021/12/29 05:13:25;;;;;;;2.03;1.73;;;;;;;-6.55;95.86;100427.19;5013446;28;20492;-69
2021/12/29 05:15:52;;;;;;;3.60;2.47;;;;;;;-6.57;95.77;100429.72;5013703;28;20053;-66
2021/12/29 05:18:19;;;;;;;2.90;1.77;;;;;;;-6.53;95.72;100436.50;5013564;28;20053;-68
2021/12/29 05:20:46;;;;;;;3.50;1.92;;;;;;;-6.54;95.82;100432.28;5013483;28;20050;-68
2021/12/29 05:23:13;;;;;;;6.13;3.28;;;;;;;-6.54;95.88;100429.75;5013329;28;20057;-69
2021/12/29 05:25:40;;;;;;;4.20;2.67;;;;;;;-6.51;95.62;100426.41;5013244;28;20065;-69
2021/12/29 05:28:09;;;;;;;;;;;;;;;-6.49;95.41;100425.56;5013661;28;20060;-68
2021/12/29 05:30:36;;;;;;;4.35;2.58;;;;;;;-6.46;95.42;100417.16;5013840;28;19933;-68
2021/12/29 05:33:04;;;;;;;1.67;1.58;;;;;;;-6.48;95.60;100414.59;5025512;23;20034;-73
2021/12/29 05:35:32;;;;;;;3.20;1.95;;;;;;;-6.51;95.95;100411.22;5013338;28;20050;-73
2021/12/29 05:38:00;;;;;;;1.58;1.42;;;;;;;-6.47;95.43;100412.91;5013000;28;20500;-73
2021/12/29 05:40:28;;;;;;;2.53;1.92;;;;;;;-6.49;95.70;100417.13;5013005;28;20053;-73
2021/12/29 05:42:55;;;;;;;2.47;2.20;;;;;;;-6.49;96.03;100410.38;5012915;28;20046;-73
2021/12/29 05:45:23;;;;;;;;;;;;;;;-6.49;95.68;100407.00;5013288;28;20365;-73
2021/12/29 05:47:50;;;;;;;2.13;1.52;;;;;;;-6.46;95.82;100407.03;5012945;28;20363;-74
2021/12/29 05:50:21;;;;;;;3.97;2.45;;;;;;;-6.50;95.58;100403.59;5012715;28;20042;-74
2021/12/29 05:52:48;;;;;;;3.28;2.17;;;;;;;-6.47;96.05;100397.72;5012742;28;20056;-73
2021/12/29 05:55:15;;;;;;;4.93;3.03;;;;;;;-6.50;95.81;100395.16;5012955;28;20057;-73
2021/12/29 05:57:42;;;;;;;2.78;2.10;;;;;;;-6.43;95.67;100396.94;5013095;28;20053;-74
2021/12/29 06:00:12;;;;;;;2.47;1.65;;;;;;;-6.40;95.44;100400.31;5012733;28;20054;-73
2021/12/29 06:02:41;;;;;;;10.52;3.17;;;;;;;-6.34;95.38;100397.03;5012690;28;20408;-73
2021/12/29 06:05:08;;;;;;;6.47;2.70;;;;;;;-6.39;95.53;100401.19;5012848;28;20046;-73
2021/12/29 06:07:36;;;;;;;4.15;3.00;;;;;;;-6.37;95.75;100397.84;5012797;28;20053;-73
2021/12/29 06:10:04;;;;;;;3.42;2.15;;;;;;;-6.35;95.46;100397.84;5012754;28;20061;-74
2021/12/29 06:12:31;;;;;;;3.05;2.50;;;;;;;-6.38;95.33;100401.19;5012665;28;20052;-74
2021/12/29 06:14:58;;;;;;;4.28;2.90;;;;;;;-6.36;94.96;100396.16;5012573;28;20068;-75
2021/12/29 06:17:25;;;;;;;6.13;3.75;;;;;;;-6.40;95.28;100399.47;5012703;28;20050;-74
2021/12/29 06:19:53;;;;;;;3.80;2.72;;;;;;;-6.33;95.14;100400.38;5012232;28;20476;-74
2021/12/29 06:22:20;;;;;;;5.15;3.03;;;;;;;-6.39;94.89;100399.50;5012375;28;20058;-73
2021/12/29 06:24:51;;;;;;;4.30;2.88;;;;;;;-6.32;95.21;100405.44;5012523;28;20046;-74
2021/12/29 06:27:19;;;;;;;3.58;2.42;;;;;;;-6.34;94.91;100409.69;5012621;28;20165;-74
2021/12/29 06:29:45;;;;;;;;;;;;;;;-6.32;95.28;100395.31;5012865;28;20145;-74
2021/12/29 06:32:12;;;;;;;1.88;1.55;;;;;;;-6.31;94.82;100403.78;5012417;28;19921;-74
2021/12/29 06:34:39;;;;;;;1.50;1.40;;;;;;;-6.31;95.12;100407.16;5026287;23;20069;-69
2021/12/29 06:37:09;;;;;;;2.95;1.90;;;;;;;-6.30;94.83;100408.84;5012620;28;20052;-69
2021/12/29 06:39:36;;;;;;;3.95;2.38;;;;;;;-6.30;94.99;100413.06;5012314;28;20477;-68
2021/12/29 06:42:04;;;;;;;4.82;2.45;;;;;;;-6.32;95.15;100410.50;5012277;28;20108;-69
2021/12/29 06:44:31;;;;;;;4.30;2.05;;;;;;;-6.38;95.07;100403.72;5012011;28;20489;-69
2021/12/29 06:46:58;;;;;;;2.20;1.88;;;;;;;-6.33;94.99;100413.06;5012106;28;20050;-69
2021/12/29 06:49:25;;;;;;;7.13;1.90;;;;;;;-6.37;95.12;100405.44;5012121;28;20504;-70
2021/12/29 06:51:52;;;;;;;2.88;2.30;;;;;;;-6.33;95.00;100413.06;5012528;28;20049;-67
2021/12/29 06:54:20;;;;;;;5.45;1.98;;;;;;;-6.35;94.99;100408.81;5012312;28;20507;-69
2021/12/29 06:56:47;;;;;;;1.52;1.42;;;;;;;-6.33;95.10;100408.00;5016108;28;20052;-70
2021/12/29 06:59:14;;;;;;;1.98;1.88;;;;;;;-6.35;95.12;100411.34;5015998;28;20054;-68
2021/12/29 07:01:41;;;;;;;2.70;2.17;;;;;;;-6.32;95.02;100404.59;5016201;28;20052;-69
2021/12/29 07:04:08;;;;;;;16.13;2.00;;;;;;;-6.30;94.90;100410.53;5016353;28;20050;-69
2021/12/29 07:06:35;;;;;;;2.15;1.88;;;;;;;-6.33;95.12;100411.38;5015864;28;20049;-67
2021/12/29 07:09:02;;;;;;;3.00;1.92;;;;;;;-6.31;94.98;100409.69;5016067;28;20050;-69
2021/12/29 07:11:30;;;;;;;2.08;1.88;;;;;;;-6.31;95.19;100403.78;5015922;28;20507;-70
2021/12/29 07:13:59;;;;;;;2.75;2.00;;;;;;;-6.34;95.41;100397.03;5015700;28;20508;-70
2021/12/29 07:16:27;;;;;;;2.03;1.77;;;;;;;-6.32;95.55;100392.78;5015638;28;20041;-70
2021/12/29 07:18:54;;;;;;;5.15;2.05;;;;;;;-6.32;95.21;100395.31;5015475;28;20480;-70
2021/12/29 07:21:20;;;;;;;4.10;2.50;;;;;;;-6.36;95.42;100398.69;5015685;28;20053;-70
2021/12/29 07:23:47;;;;;;;3.85;2.58;;;;;;;-6.30;95.31;100395.34;5015588;28;20049;-69
2021/12/29 07:26:14;;;;;;;4.90;2.38;;;;;;;-6.31;95.29;100393.66;5015563;28;20485;-69
2021/12/29 07:28:43;;;;;;;1.27;1.17;;;;;;;-6.28;95.23;100388.63;5015656;28;20050;-68
2021/12/29 07:31:10;;;;;;;2.78;1.92;;;;;;;-6.28;95.08;100386.09;5015468;28;20459;-69
2021/12/29 07:33:37;;;;;;;3.13;2.60;;;;;;;-6.30;95.07;100385.22;5015607;28;20058;-65
2021/12/29 07:36:04;;;;;;;3.95;1.90;;;;;;;-6.31;95.63;100386.91;5015524;28;20046;-65
2021/12/29 07:38:31;;;;;;;8.05;2.22;;;;;;;-6.30;95.14;100380.16;5015160;28;20515;-67
2021/12/29 07:40:58;;;;;;;1.85;1.60;;;;;;;-6.26;95.21;100384.41;5015029;28;20503;-64
2021/12/29 07:43:25;;;;;;;2.17;1.98;;;;;;;-6.26;95.12;100389.47;5014935;28;20441;-65
2021/12/29 07:45:54;;;;;;;1.88;1.67;;;;;;;-6.29;94.84;100391.97;5015045;28;20057;-64
2021/12/29 07:48:26;;;;;;;4.22;2.15;;;;;;;-6.25;94.88;100384.41;5015175;28;20100;-64
2021/12/29 07:50:53;;;;;;;3.08;2.42;;;;;;;-6.23;95.03;100376.84;5015078;28;20655;-66
2021/12/29 07:53:20;;;;;;;4.57;2.22;;;;;;;-6.27;95.03;100386.06;5015055;28;20046;-65
2021/12/29 07:55:47;;;;;;;5.63;2.70;;;;;;;-6.31;94.95;100375.94;5015122;28;20046;-65
2021/12/29 07:58:14;;;;;;;1.70;1.60;;;;;;;-6.25;95.32;100391.16;5015502;28;20045;-66
2021/12/29 08:00:41;;;;;;;2.70;1.92;;;;;;;-6.25;95.24;100386.94;5015223;28;20050;-65
2021/12/29 08:03:11;;;;;;;;;;;;;;;-6.25;95.12;100381.88;5015025;28;20050;-69
2021/12/29 08:05:38;;;;;;;1.05;1.05;;;;;;;-6.21;94.92;100382.78;5014583;28;20296;-65
2021/12/29 08:08:06;;;;;;;3.50;2.60;;;;;;;-6.26;95.21;100390.31;5014703;28;20042;-69
2021/12/29 08:10:34;;;;;;;4.97;2.58;;;;;;;-6.23;94.95;100395.41;5014706;28;20185;-70
2021/12/29 08:13:01;;;;;;;2.17;1.92;;;;;;;-6.22;95.38;100391.19;5014395;28;20049;-64
2021/12/29 08:15:29;;;;;;;;;;;;;;;-6.18;95.17;100393.75;5015033;28;20095;-69
2021/12/29 08:17:56;;;;;;;2.20;1.77;;;;;;;-6.19;95.17;100386.13;5014493;28;20288;-68
2021/12/29 08:20:25;;;;;;;5.38;2.88;;;;;;;-6.23;95.16;100394.56;5014268;28;20054;-65
2021/12/29 08:22:53;;;;;;;1.73;1.27;;;;;;;-6.15;95.30;100391.25;5014171;28;20473;-64
2021/12/29 08:25:20;;;;;;;2.17;1.98;;;;;;;-6.15;94.92;100388.72;5014575;28;20436;-64
2021/12/29 08:27:47;;;;;;;4.38;2.92;;;;;;;-6.21;94.87;100392.91;5014747;28;20050;-70
2021/12/29 08:30:15;;;;;;;4.20;2.28;;;;;;;-6.14;94.82;100389.53;5014359;28;20515;-65
2021/12/29 08:32:43;;;;;;;1.83;0.93;;;;;;;-6.09;94.91;100377.75;5014511;28;20145;-69
2021/12/29 08:35:09;;;;;;;;;;;;;;;-6.12;95.33;100382.81;5014951;28;20428;-68
2021/12/29 08:37:38;;;;;;;1.33;1.23;;;;;;;-6.10;95.57;100381.16;5014720;28;19921;-65
2021/12/29 08:40:08;;;;;;;5.28;2.55;;;;;;;-6.10;95.14;100378.63;5014133;28;20057;-68
2021/12/29 08:42:35;;;;;;;2.35;2.10;;;;;;;-6.06;94.74;100374.41;5014291;28;20052;-70
2021/12/29 08:45:01;;;;;;;3.33;2.53;;;;;;;-6.06;94.76;100382.88;5013822;28;20062;-66
2021/12/29 08:47:28;;;;;;;1.90;1.80;;;;;;;-6.09;95.13;100376.94;5013923;28;20046;-66
2021/12/29 08:49:55;;;;;;;1.42;1.25;;;;;;;-6.08;94.65;100371.03;5013951;28;20053;-65
2021/12/29 08:52:22;;;;;;;4.20;2.47;;;;;;;-6.16;94.57;100378.59;5014110;28;20046;-69
2021/12/29 08:54:51;;;;;;;1.83;1.73;;;;;;;-6.04;94.47;100368.50;5014011;28;20492;-66
2021/12/29 08:57:17;;;;;;;2.58;1.55;;;;;;;-6.03;94.56;100370.22;5014305;28;20045;-70
2021/12/29 08:59:44;;;;;;;2.55;2.00;;;;;;;-6.06;94.48;100372.75;5013918;28;20058;-67
2021/12/29 09:02:11;;;;;;;4.07;2.13;;;;;;;-6.03;94.59;100380.34;5013558;28;20499;-69
2021/12/29 09:04:38;;;;;;;3.35;2.28;;;;;;;-6.02;94.42;100374.44;5013406;28;20050;-66
2021/12/29 09:07:05;;;;;;;3.13;2.22;;;;;;;-6.00;94.27;100364.34;5013498;28;20053;-69
2021/12/29 09:09:32;;;;;;;4.78;2.67;;;;;;;-6.00;94.36;100365.16;5013750;28;20045;-70
2021/12/29 09:12:00;;;;;;;4.07;2.65;;;;;;;-6.00;94.67;100369.41;5013693;28;20050;-65
2021/12/29 09:14:27;;;;;;;1.92;1.65;;;;;;;-5.98;94.31;100363.50;5013273;28;20404;-65
2021/12/29 09:16:54;;;;;;;3.08;2.05;;;;;;;-6.03;94.29;100369.38;5013360;28;20045;-65
2021/12/29 09:19:22;;;;;;;3.70;1.70;;;;;;;-6.05;94.65;100369.38;5012821;28;20049;-65
2021/12/29 09:21:52;;;;;;;2.17;1.85;;;;;;;-5.98;94.13;100368.56;5013733;28;20050;-65
2021/12/29 09:24:19;;;;;;;3.47;2.45;;;;;;;-5.97;94.37;100372.78;5013781;28;20132;-65
2021/12/29 09:26:46;;;;;;;1.67;1.58;;;;;;;-5.93;94.19;100381.25;5013761;28;20045;-66
2021/12/29 09:29:15;;;;;;;2.58;1.63;;;;;;;-5.94;94.11;100388.00;5013262;28;20056;-69
2021/12/29 09:31:42;;;;;;;3.75;2.15;;;;;;;-5.92;93.97;100382.94;5013297;28;20050;-69
2021/12/29 09:34:09;;;;;;;4.07;2.47;;;;;;;-5.92;94.16;100375.31;5013504;28;20050;-68
2021/12/29 09:36:36;;;;;;;1.95;1.52;;;;;;;-5.85;94.07;100377.06;5013047;28;20480;-69
2021/12/29 09:39:04;;;;;;;4.28;2.63;;;;;;;-5.86;94.07;100369.44;5012948;28;20408;-67
2021/12/29 09:41:32;;;;;;;4.00;2.38;;;;;;;-5.82;93.83;100373.69;5013327;28;20046;-70
2021/12/29 09:43:59;;;;;;;2.95;2.42;;;;;;;-5.86;94.17;100371.97;5012975;28;20104;-70
2021/12/29 09:46:28;;;;;;;3.30;1.95;;;;;;;-5.78;93.96;100381.34;5012978;28;20050;-69
2021/12/29 09:48:55;;;;;;;4.90;2.53;;;;;;;-5.79;93.73;100371.16;5013197;28;20053;-65
2021/12/29 09:51:21;;;;;;;3.33;2.25;;;;;;;-5.82;94.00;100368.63;5013341;28;20049;-69
2021/12/29 09:53:49;;;;;;;2.97;2.58;;;;;;;-5.78;93.81;100367.78;5012984;28;20057;-70
2021/12/29 09:56:16;;;;;;;3.72;2.38;;;;;;;-5.80;94.27;100365.25;5013039;28;20069;-70
2021/12/29 09:58:43;;;;;;;2.85;2.22;;;;;;;-5.83;94.05;100360.19;5012866;28;20077;-69
2021/12/29 10:01:11;;;;;;;1.52;1.23;;;;;;;-5.79;93.89;100361.03;5013003;28;20054;-70
2021/12/29 10:03:44;;;;;;;;;;;;;;;-5.80;94.21;100361.88;5013207;28;20050;-70
2021/12/29 10:06:11;;;;;;;2.83;1.80;;;;;;;-5.75;94.16;100361.06;5012869;28;19928;-69
2021/12/29 10:08:40;;;;;;;2.58;2.22;;;;;;;-5.75;93.93;100356.00;5012806;28;20057;-69
2021/12/29 10:11:09;;;;;;;2.70;2.17;;;;;;;-5.78;94.05;100356.00;5012542;28;20049;-64
2021/12/29 10:13:39;;;;;;;2.35;1.95;;;;;;;-5.80;94.50;100360.19;5012343;28;20375;-63
2021/12/29 10:16:08;;;;;;;1.77;1.67;;;;;;;-5.83;94.59;100355.13;5012649;28;20455;-64
2021/12/29 10:18:40;;;;;;;1.88;1.67;;;;;;;-5.84;94.26;100358.47;5012511;28;20064;-63
2021/12/29 10:21:10;;;;;;;3.88;2.50;;;;;;;-5.86;94.26;100356.75;5012407;28;20050;-63
2021/12/29 10:23:43;;;;;;;1.88;1.55;;;;;;;-5.91;94.71;100354.19;5012199;28;20412;-63
2021/12/29 10:26:13;;;;;;;3.58;1.80;;;;;;;-5.93;95.17;100358.44;5012728;28;20073;-63
2021/12/29 10:28:42;;;;;;;3.63;2.25;;;;;;;-5.92;95.06;100357.59;5012254;28;20468;-63
2021/12/29 10:31:13;;;;;;;3.35;2.30;;;;;;;-5.93;95.21;100358.44;5011887;28;20057;-68
2021/12/29 10:33:43;;;;;;;1.77;1.48;;;;;;;-5.89;95.04;100354.22;5012859;28;20405;-69
2021/12/29 10:36:19;;;;;;;0.90;0.90;;;;;;;-5.82;95.12;100355.97;5012293;28;20477;-68
2021/12/29 10:38:51;;;;;;;5.60;2.60;;;;;;;-5.82;94.81;100350.88;5012169;28;20054;-66
2021/12/29 10:41:17;;;;;;;1.65;1.55;;;;;;;-5.77;94.72;100354.28;5012245;28;20501;-63
2021/12/29 10:43:58;;;;;;;3.15;2.10;;;;;;;-5.80;94.87;100360.19;5012070;28;20053;-64
2021/12/29 10:46:31;;;;;;;2.95;1.77;;;;;;;-5.81;95.03;100355.09;5012531;28;20042;-67
2021/12/29 10:49:00;;;;;;;1.95;1.60;;;;;;;-5.81;95.09;100347.50;5012409;28;20045;-65
2021/12/29 10:51:31;;;;;;;2.22;1.60;;;;;;;-5.82;94.83;100354.25;5012499;28;20046;-63
2021/12/29 10:54:07;;;;;;;1.88;1.65;;;;;;;-5.81;94.77;100344.97;5012277;28;20050;-64
2021/12/29 10:56:34;;;;;;;3.40;2.13;;;;;;;-5.83;94.97;100350.06;5012134;28;20096;-65
2021/12/29 10:59:12;;;;;;;;;;;;;;;-5.84;95.49;100350.03;5012698;28;20283;-63
2021/12/29 11:01:39;;;;;;;4.47;2.95;;;;;;;-5.87;95.28;100344.94;5012056;28;19926;-64
2021/12/29 11:04:08;;;;;;;3.08;2.13;;;;;;;-5.85;95.31;100341.59;5011922;28;20412;-63
2021/12/29 11:06:41;;;;;;;1.45;1.30;;;;;;;-5.82;95.33;100330.63;5012149;28;20042;-63
2021/12/29 11:09:08;;;;;;;2.17;1.30;;;;;;;-5.81;95.37;100330.59;5012046;28;20050;-70
2021/12/29 11:11:37;;;;;;;2.70;2.10;;;;;;;-5.82;95.12;100341.59;5011982;28;20074;-66
2021/12/29 11:14:09;;;;;;;2.47;1.77;;;;;;;-5.83;95.25;100333.97;5011941;28;20049;-67
2021/12/29 11:16:36;;;;;;;4.57;2.05;;;;;;;-5.77;95.38;100334.88;5011757;28;20042;-65
2021/12/29 11:19:03;;;;;;;6.20;3.28;;;;;;;-5.71;94.80;100339.09;5011915;28;20058;-70
2021/12/29 11:21:31;;;;;;;;;;;;;;;-5.75;95.18;100347.56;5012419;28;20065;-68
2021/12/29 11:24:11;;;;;;;3.72;2.55;;;;;;;-5.65;94.81;100343.34;5011970;28;19929;-64
2021/12/29 11:26:38;;;;;;;5.20;2.70;;;;;;;-5.67;95.04;100340.00;5012097;28;20053;-64
2021/12/29 11:29:07;;;;;;;9.13;3.20;;;;;;;-5.68;95.05;100344.19;5011895;28;20068;-64
2021/12/29 11:31:36;;;;;;;7.00;3.35;;;;;;;-5.63;94.64;100342.53;5011851;28;20065;-65
2021/12/29 11:34:20;;;;;;;9.20;3.53;;;;;;;-5.68;94.66;100339.13;5012001;28;20057;-64